sensor_id;sensor_type;location;lat;lon;timestamp;pressure;altitude;pressure_sealevel;temperature;humidity
75447;BME280;64024;55.820;37.574;2023-06-22T00:00:49;99069.03;;;24.98;29.54
75447;BME280;64024;55.820;37.574;2023-06-22T00:03:15;99056.84;;;24.96;29.62
75447;BME280;64024;55.820;37.574;2023-06-22T00:05:41;99057.16;;;24.94;29.64
75447;BME280;64024;55.820;37.574;2023-06-22T00:08:06;99064.81;;;24.92;29.37
75447;BME280;64024;55.820;37.574;2023-06-22T00:10:32;99062.41;;;24.91;29.63
75447;BME280;64024;55.820;37.574;2023-06-22T00:12:58;99064.66;;;24.89;29.46
75447;BME280;64024;55.820;37.574;2023-06-22T00:15:24;99060.63;;;24.86;29.54
75447;BME280;64024;55.820;37.574;2023-06-22T00:17:49;99066.38;;;24.85;29.28
75447;BME280;64024;55.820;37.574;2023-06-22T00:20:15;99056.09;;;24.82;29.17
75447;BME280;64024;55.820;37.574;2023-06-22T00:22:43;99065.38;;;24.80;29.29
75447;BME280;64024;55.820;37.574;2023-06-22T00:25:10;99072.22;;;24.78;29.22
75447;BME280;64024;55.820;37.574;2023-06-22T00:27:36;99069.81;;;24.76;29.18
75447;BME280;64024;55.820;37.574;2023-06-22T00:30:02;99068.50;;;24.74;29.37
75447;BME280;64024;55.820;37.574;2023-06-22T00:32:28;99070.72;;;24.72;29.17
75447;BME280;64024;55.820;37.574;2023-06-22T00:34:53;99061.06;;;24.66;28.96
75447;BME280;64024;55.820;37.574;2023-06-22T00:37:19;99053.22;;;24.64;29.01
75447;BME280;64024;55.820;37.574;2023-06-22T00:39:48;99054.94;;;24.60;29.34
75447;BME280;64024;55.820;37.574;2023-06-22T00:42:14;99056.34;;;24.58;28.91
75447;BME280;64024;55.820;37.574;2023-06-22T00:44:39;99059.66;;;24.54;29.18
75447;BME280;64024;55.820;37.574;2023-06-22T00:47:06;99056.47;;;24.52;29.23
75447;BME280;64024;55.820;37.574;2023-06-22T00:49:32;99049.72;;;24.50;28.99
75447;BME280;64024;55.820;37.574;2023-06-22T00:51:57;99060.91;;;24.48;29.34
75447;BME280;64024;55.820;37.574;2023-06-22T00:54:24;99058.78;;;24.45;29.36
75447;BME280;64024;55.820;37.574;2023-06-22T00:56:54;99056.66;;;24.42;29.44
75447;BME280;64024;55.820;37.574;2023-06-22T00:59:22;99060.50;;;24.41;29.59
75447;BME280;64024;55.820;37.574;2023-06-22T01:01:48;99061.22;;;24.47;29.40
75447;BME280;64024;55.820;37.574;2023-06-22T01:04:14;99055.06;;;24.41;29.44
75447;BME280;64024;55.820;37.574;2023-06-22T01:06:46;99052.44;;;24.36;29.53
75447;BME280;64024;55.820;37.574;2023-06-22T01:09:23;99061.19;;;24.33;29.27
75447;BME280;64024;55.820;37.574;2023-06-22T01:11:55;99066.13;;;24.31;29.59
75447;BME280;64024;55.820;37.574;2023-06-22T01:14:37;99061.78;;;24.30;29.46
75447;BME280;64024;55.820;37.574;2023-06-22T01:17:08;99070.25;;;24.28;29.57
75447;BME280;64024;55.820;37.574;2023-06-22T01:19:44;99078.38;;;24.28;29.35
75447;BME280;64024;55.820;37.574;2023-06-22T01:22:15;99078.38;;;24.28;29.77
75447;BME280;64024;55.820;37.574;2023-06-22T01:27:33;99069.75;;;24.26;29.67
75447;BME280;64024;55.820;37.574;2023-06-22T01:30:03;99072.47;;;24.26;29.31
75447;BME280;64024;55.820;37.574;2023-06-22T01:32:33;99068.91;;;24.26;29.38
75447;BME280;64024;55.820;37.574;2023-06-22T01:35:01;99072.47;;;24.26;29.28
75447;BME280;64024;55.820;37.574;2023-06-22T01:37:29;99072.16;;;24.28;29.64
75447;BME280;64024;55.820;37.574;2023-06-22T01:39:57;99074.56;;;24.29;29.28
75447;BME280;64024;55.820;37.574;2023-06-22T01:42:25;99075.06;;;24.31;29.39
75447;BME280;64024;55.820;37.574;2023-06-22T01:44:53;99066.63;;;24.33;29.23
75447;BME280;64024;55.820;37.574;2023-06-22T01:47:23;99067.94;;;24.36;29.24
75447;BME280;64024;55.820;37.574;2023-06-22T01:49:50;99068.97;;;24.40;29.24
75447;BME280;64024;55.820;37.574;2023-06-22T01:52:19;99071.09;;;24.43;29.55
75447;BME280;64024;55.820;37.574;2023-06-22T01:54:47;99075.59;;;24.47;29.42
75447;BME280;64024;55.820;37.574;2023-06-22T01:57:13;99071.47;;;24.50;29.18
75447;BME280;64024;55.820;37.574;2023-06-22T01:59:48;99073.25;;;24.54;29.04
75447;BME280;64024;55.820;37.574;2023-06-22T02:02:17;99066.09;;;24.59;29.15
75447;BME280;64024;55.820;37.574;2023-06-22T02:04:57;99060.59;;;24.64;28.96
75447;BME280;64024;55.820;37.574;2023-06-22T02:07:29;99067.03;;;24.68;29.41
75447;BME280;64024;55.820;37.574;2023-06-22T02:09:58;99068.03;;;24.72;29.16
75447;BME280;64024;55.820;37.574;2023-06-22T02:12:26;99057.03;;;24.77;28.93
75447;BME280;64024;55.820;37.574;2023-06-22T02:14:54;99057.22;;;24.80;29.26
75447;BME280;64024;55.820;37.574;2023-06-22T02:17:20;99050.06;;;24.85;29.49
75447;BME280;64024;55.820;37.574;2023-06-22T02:19:46;99049.94;;;24.90;29.34
75447;BME280;64024;55.820;37.574;2023-06-22T02:22:11;99050.94;;;24.94;29.45
75447;BME280;64024;55.820;37.574;2023-06-22T02:24:40;99041.53;;;25.00;29.42
75447;BME280;64024;55.820;37.574;2023-06-22T02:27:06;99030.84;;;25.03;29.33
75447;BME280;64024;55.820;37.574;2023-06-22T02:29:33;99037.03;;;25.09;29.58
75447;BME280;64024;55.820;37.574;2023-06-22T02:31:58;99023.91;;;25.11;29.40
75447;BME280;64024;55.820;37.574;2023-06-22T02:34:24;99033.03;;;25.15;29.56
75447;BME280;64024;55.820;37.574;2023-06-22T02:36:50;99029.41;;;25.20;29.18
75447;BME280;64024;55.820;37.574;2023-06-22T02:39:23;99031.50;;;25.23;29.41
75447;BME280;64024;55.820;37.574;2023-06-22T02:41:50;99021.63;;;25.27;29.52
75447;BME280;64024;55.820;37.574;2023-06-22T02:44:16;99024.00;;;25.28;29.78
75447;BME280;64024;55.820;37.574;2023-06-22T02:46:43;99014.44;;;25.31;29.74
75447;BME280;64024;55.820;37.574;2023-06-22T02:49:10;99020.34;;;25.33;29.90
75447;BME280;64024;55.820;37.574;2023-06-22T02:51:44;99018.63;;;25.37;30.25
75447;BME280;64024;55.820;37.574;2023-06-22T02:54:10;99016.88;;;25.41;30.20
75447;BME280;64024;55.820;37.574;2023-06-22T02:56:36;99010.81;;;25.44;30.23
75447;BME280;64024;55.820;37.574;2023-06-22T02:59:02;99014.53;;;25.48;30.42
75447;BME280;64024;55.820;37.574;2023-06-22T03:01:29;99019.84;;;25.53;30.35
75447;BME280;64024;55.820;37.574;2023-06-22T03:03:57;99010.72;;;25.58;30.60
75447;BME280;64024;55.820;37.574;2023-06-22T03:06:23;99012.50;;;25.63;30.43
75447;BME280;64024;55.820;37.574;2023-06-22T03:08:58;99009.97;;;25.66;30.79
75447;BME280;64024;55.820;37.574;2023-06-22T03:11:24;99012.56;;;25.71;30.77
75447;BME280;64024;55.820;37.574;2023-06-22T03:13:50;99013.25;;;25.77;30.71
75447;BME280;64024;55.820;37.574;2023-06-22T03:16:17;99006.44;;;25.88;30.71
75447;BME280;64024;55.820;37.574;2023-06-22T03:18:43;99007.22;;;25.89;30.78
75447;BME280;64024;55.820;37.574;2023-06-22T03:21:09;98999.34;;;25.87;30.87
75447;BME280;64024;55.820;37.574;2023-06-22T03:23:35;98985.44;;;25.89;31.26
75447;BME280;64024;55.820;37.574;2023-06-22T03:26:01;98993.78;;;25.92;31.21
75447;BME280;64024;55.820;37.574;2023-06-22T03:28:27;98986.09;;;25.94;31.03
75447;BME280;64024;55.820;37.574;2023-06-22T03:30:52;98979.22;;;25.97;31.31
75447;BME280;64024;55.820;37.574;2023-06-22T03:33:18;98984.84;;;26.00;31.28
75447;BME280;64024;55.820;37.574;2023-06-22T03:35:44;98984.69;;;26.06;31.27
75447;BME280;64024;55.820;37.574;2023-06-22T03:38:09;98985.97;;;26.08;31.29
75447;BME280;64024;55.820;37.574;2023-06-22T03:40:35;98980.69;;;26.12;31.34
75447;BME280;64024;55.820;37.574;2023-06-22T03:43:00;98986.31;;;26.15;31.29
75447;BME280;64024;55.820;37.574;2023-06-22T03:45:26;98992.72;;;26.19;31.29
75447;BME280;64024;55.820;37.574;2023-06-22T03:47:52;98976.88;;;26.21;31.06
75447;BME280;64024;55.820;37.574;2023-06-22T03:50:18;98978.66;;;26.26;31.11
75447;BME280;64024;55.820;37.574;2023-06-22T03:52:46;98977.19;;;26.28;30.95
75447;BME280;64024;55.820;37.574;2023-06-22T03:55:12;98973.50;;;26.33;30.80
75447;BME280;64024;55.820;37.574;2023-06-22T03:57:37;98976.09;;;26.38;30.83
75447;BME280;64024;55.820;37.574;2023-06-22T04:00:04;98989.06;;;26.41;30.55
75447;BME280;64024;55.820;37.574;2023-06-22T04:02:33;98975.66;;;26.45;30.92
75447;BME280;64024;55.820;37.574;2023-06-22T04:04:58;98977.75;;;26.48;31.18
75447;BME280;64024;55.820;37.574;2023-06-22T04:07:24;98973.59;;;26.50;31.04
75447;BME280;64024;55.820;37.574;2023-06-22T04:09:50;98968.59;;;26.52;31.31
75447;BME280;64024;55.820;37.574;2023-06-22T04:12:16;98974.84;;;26.53;31.02
75447;BME280;64024;55.820;37.574;2023-06-22T04:14:41;98967.97;;;26.56;31.13
75447;BME280;64024;55.820;37.574;2023-06-22T04:17:07;98969.56;;;26.57;30.80
75447;BME280;64024;55.820;37.574;2023-06-22T04:19:32;98971.97;;;26.58;30.96
75447;BME280;64024;55.820;37.574;2023-06-22T04:21:58;98968.13;;;26.59;30.99
75447;BME280;64024;55.820;37.574;2023-06-22T04:24:24;98975.97;;;26.61;31.11
75447;BME280;64024;55.820;37.574;2023-06-22T04:26:49;98971.31;;;26.61;31.08
75447;BME280;64024;55.820;37.574;2023-06-22T04:29:20;98980.81;;;26.64;31.18
75447;BME280;64024;55.820;37.574;2023-06-22T04:31:54;98968.75;;;26.65;30.83
75447;BME280;64024;55.820;37.574;2023-06-22T04:34:21;98970.06;;;26.67;30.85
75447;BME280;64024;55.820;37.574;2023-06-22T04:36:47;98962.69;;;26.68;30.37
75447;BME280;64024;55.820;37.574;2023-06-22T04:39:12;98962.03;;;26.71;30.73
75447;BME280;64024;55.820;37.574;2023-06-22T04:41:39;98951.59;;;26.73;30.58
75447;BME280;64024;55.820;37.574;2023-06-22T04:46:37;98949.38;;;26.75;30.65
75447;BME280;64024;55.820;37.574;2023-06-22T04:49:07;98953.69;;;26.76;30.41
75447;BME280;64024;55.820;37.574;2023-06-22T04:51:44;98960.41;;;26.78;30.42
75447;BME280;64024;55.820;37.574;2023-06-22T04:54:10;98968.59;;;26.78;30.25
75447;BME280;64024;55.820;37.574;2023-06-22T04:56:36;98971.00;;;26.80;30.39
75447;BME280;64024;55.820;37.574;2023-06-22T04:59:03;98964.44;;;26.81;30.44
75447;BME280;64024;55.820;37.574;2023-06-22T05:01:29;98957.84;;;26.82;30.44
75447;BME280;64024;55.820;37.574;2023-06-22T05:03:57;98963.31;;;26.82;30.10
75447;BME280;64024;55.820;37.574;2023-06-22T05:06:23;98962.50;;;26.82;30.40
75447;BME280;64024;55.820;37.574;2023-06-22T05:08:56;98966.53;;;26.84;30.36
75447;BME280;64024;55.820;37.574;2023-06-22T05:11:28;98965.38;;;26.85;30.02
75447;BME280;64024;55.820;37.574;2023-06-22T05:13:54;98963.47;;;26.86;30.31
75447;BME280;64024;55.820;37.574;2023-06-22T05:16:20;98973.25;;;26.87;30.21
75447;BME280;64024;55.820;37.574;2023-06-22T05:18:51;98970.50;;;26.87;30.16
75447;BME280;64024;55.820;37.574;2023-06-22T05:21:17;98974.88;;;26.88;30.37
75447;BME280;64024;55.820;37.574;2023-06-22T05:23:44;98972.13;;;26.88;29.93
75447;BME280;64024;55.820;37.574;2023-06-22T05:26:10;98972.13;;;26.88;30.10
75447;BME280;64024;55.820;37.574;2023-06-22T05:28:36;98967.47;;;26.88;29.65
75447;BME280;64024;55.820;37.574;2023-06-22T05:31:01;98963.63;;;26.89;29.75
75447;BME280;64024;55.820;37.574;2023-06-22T05:33:27;98966.81;;;26.91;29.71
75447;BME280;64024;55.820;37.574;2023-06-22T05:35:53;98959.47;;;26.92;29.99
75447;BME280;64024;55.820;37.574;2023-06-22T05:38:18;98962.66;;;26.94;30.08
75447;BME280;64024;55.820;37.574;2023-06-22T05:40:44;98958.78;;;26.95;29.82
75447;BME280;64024;55.820;37.574;2023-06-22T05:43:10;98956.56;;;26.97;29.75
75447;BME280;64024;55.820;37.574;2023-06-22T05:45:36;98959.28;;;26.97;29.86
75447;BME280;64024;55.820;37.574;2023-06-22T05:48:01;98957.03;;;26.99;29.91
75447;BME280;64024;55.820;37.574;2023-06-22T05:50:27;98961.38;;;27.00;30.17
75447;BME280;64024;55.820;37.574;2023-06-22T05:52:52;98974.69;;;27.01;29.90
75447;BME280;64024;55.820;37.574;2023-06-22T05:55:18;98969.69;;;27.03;29.87
75447;BME280;64024;55.820;37.574;2023-06-22T05:57:44;98970.19;;;27.06;29.65
75447;BME280;64024;55.820;37.574;2023-06-22T06:00:10;98972.28;;;27.09;29.98
75447;BME280;64024;55.820;37.574;2023-06-22T06:02:37;98965.50;;;27.23;29.79
75447;BME280;64024;55.820;37.574;2023-06-22T06:05:11;98967.63;;;27.18;29.22
75447;BME280;64024;55.820;37.574;2023-06-22T06:07:40;98962.34;;;27.13;29.12
75447;BME280;64024;55.820;37.574;2023-06-22T06:10:06;98960.41;;;27.05;28.92
75447;BME280;64024;55.820;37.574;2023-06-22T06:12:32;98956.56;;;26.97;28.78
75447;BME280;64024;55.820;37.574;2023-06-22T06:14:58;98973.41;;;26.90;28.59
75447;BME280;64024;55.820;37.574;2023-06-22T06:17:23;98960.56;;;26.82;28.75
75447;BME280;64024;55.820;37.574;2023-06-22T06:19:49;98959.44;;;26.74;28.67
75447;BME280;64024;55.820;37.574;2023-06-22T06:22:15;98973.09;;;26.66;28.81
75447;BME280;64024;55.820;37.574;2023-06-22T06:24:40;98968.13;;;26.59;28.62
75447;BME280;64024;55.820;37.574;2023-06-22T06:27:06;98967.00;;;26.51;28.83
75447;BME280;64024;55.820;37.574;2023-06-22T06:29:32;98966.34;;;26.46;28.67
75447;BME280;64024;55.820;37.574;2023-06-22T06:31:58;98963.28;;;26.39;28.92
75447;BME280;64024;55.820;37.574;2023-06-22T06:34:23;98968.41;;;26.32;28.71
75447;BME280;64024;55.820;37.574;2023-06-22T06:36:49;98967.94;;;26.30;28.87
75447;BME280;64024;55.820;37.574;2023-06-22T06:39:15;98967.44;;;26.27;29.79
75447;BME280;64024;55.820;37.574;2023-06-22T06:41:41;98961.19;;;26.27;30.39
75447;BME280;64024;55.820;37.574;2023-06-22T06:44:07;98963.56;;;26.28;30.61
75447;BME280;64024;55.820;37.574;2023-06-22T06:46:33;98966.31;;;26.28;30.84
75447;BME280;64024;55.820;37.574;2023-06-22T06:48:58;98966.78;;;26.31;31.19
75447;BME280;64024;55.820;37.574;2023-06-22T06:51:24;98962.94;;;26.32;31.36
75447;BME280;64024;55.820;37.574;2023-06-22T06:53:49;98966.16;;;26.34;31.49
75447;BME280;64024;55.820;37.574;2023-06-22T06:56:16;98965.50;;;26.37;31.20
75447;BME280;64024;55.820;37.574;2023-06-22T06:58:41;98961.81;;;26.41;31.21
75447;BME280;64024;55.820;37.574;2023-06-22T07:01:08;98969.41;;;26.44;31.12
75447;BME280;64024;55.820;37.574;2023-06-22T07:03:34;98970.38;;;26.48;30.86
75447;BME280;64024;55.820;37.574;2023-06-22T07:06:00;98978.38;;;26.53;30.52
75447;BME280;64024;55.820;37.574;2023-06-22T07:08:26;98958.34;;;26.58;30.21
75447;BME280;64024;55.820;37.574;2023-06-22T07:10:55;98963.47;;;26.60;30.32
75447;BME280;64024;55.820;37.574;2023-06-22T07:13:21;98962.34;;;26.61;30.25
75447;BME280;64024;55.820;37.574;2023-06-22T07:15:46;98962.84;;;26.63;30.40
75447;BME280;64024;55.820;37.574;2023-06-22T07:18:12;98946.97;;;26.65;30.27
75447;BME280;64024;55.820;37.574;2023-06-22T07:20:38;98949.22;;;26.63;30.25
75447;BME280;64024;55.820;37.574;2023-06-22T07:23:04;98959.97;;;26.59;29.93
75447;BME280;64024;55.820;37.574;2023-06-22T07:25:30;98960.91;;;26.55;29.75
75447;BME280;64024;55.820;37.574;2023-06-22T07:28:01;98947.44;;;26.49;29.84
75447;BME280;64024;55.820;37.574;2023-06-22T07:30:28;98961.22;;;26.44;30.19
75447;BME280;64024;55.820;37.574;2023-06-22T07:32:54;98948.38;;;26.36;29.89
75447;BME280;64024;55.820;37.574;2023-06-22T07:35:20;98960.06;;;26.28;30.11
75447;BME280;64024;55.820;37.574;2023-06-22T07:37:46;98953.97;;;26.22;30.07
75447;BME280;64024;55.820;37.574;2023-06-22T07:40:12;98953.78;;;26.19;30.08
75447;BME280;64024;55.820;37.574;2023-06-22T07:42:38;98956.53;;;26.19;30.71
75447;BME280;64024;55.820;37.574;2023-06-22T07:45:04;98949.16;;;26.19;30.86
75447;BME280;64024;55.820;37.574;2023-06-22T07:47:31;98954.25;;;26.21;31.58
75447;BME280;64024;55.820;37.574;2023-06-22T07:50:00;98949.31;;;26.23;31.69
75447;BME280;64024;55.820;37.574;2023-06-22T07:52:27;98946.59;;;26.23;31.75
75447;BME280;64024;55.820;37.574;2023-06-22T07:54:53;98945.47;;;26.33;31.40
75447;BME280;64024;55.820;37.574;2023-06-22T07:57:19;98952.06;;;26.32;31.24
75447;BME280;64024;55.820;37.574;2023-06-22T07:59:45;98945.31;;;26.29;31.58
75447;BME280;64024;55.820;37.574;2023-06-22T08:02:11;98942.91;;;26.27;31.82
75447;BME280;64024;55.820;37.574;2023-06-22T08:04:37;98945.63;;;26.27;31.87
75447;BME280;64024;55.820;37.574;2023-06-22T08:07:03;98939.06;;;26.28;32.09
75447;BME280;64024;55.820;37.574;2023-06-22T08:09:30;98944.50;;;26.28;32.15
75447;BME280;64024;55.820;37.574;2023-06-22T08:11:56;98930.88;;;26.28;32.34
75447;BME280;64024;55.820;37.574;2023-06-22T08:14:24;98934.91;;;26.31;32.51
75447;BME280;64024;55.820;37.574;2023-06-22T08:16:50;98932.66;;;26.33;32.52
75447;BME280;64024;55.820;37.574;2023-06-22T08:19:16;98939.72;;;26.34;32.71
75447;BME280;64024;55.820;37.574;2023-06-22T08:21:42;98929.00;;;26.38;32.70
75447;BME280;64024;55.820;37.574;2023-06-22T08:24:08;98930.59;;;26.39;32.85
75447;BME280;64024;55.820;37.574;2023-06-22T08:26:33;98922.88;;;26.41;32.78
75447;BME280;64024;55.820;37.574;2023-06-22T08:29:05;98929.13;;;26.41;32.68
75447;BME280;64024;55.820;37.574;2023-06-22T08:31:31;98926.41;;;26.41;32.10
75447;BME280;64024;55.820;37.574;2023-06-22T08:33:58;98925.94;;;26.39;31.86
75447;BME280;64024;55.820;37.574;2023-06-22T08:36:24;98932.81;;;26.37;31.57
75447;BME280;64024;55.820;37.574;2023-06-22T08:38:51;98929.44;;;26.31;31.16
75447;BME280;64024;55.820;37.574;2023-06-22T08:41:19;98916.28;;;26.24;30.69
75447;BME280;64024;55.820;37.574;2023-06-22T08:43:45;98914.06;;;26.18;30.66
75447;BME280;64024;55.820;37.574;2023-06-22T08:46:11;98918.38;;;26.10;30.55
75447;BME280;64024;55.820;37.574;2023-06-22T08:48:36;98915.00;;;26.05;30.52
75447;BME280;64024;55.820;37.574;2023-06-22T08:51:02;98911.78;;;26.02;30.71
75447;BME280;64024;55.820;37.574;2023-06-22T08:53:28;98917.25;;;26.02;31.62
75447;BME280;64024;55.820;37.574;2023-06-22T08:55:54;98903.94;;;26.01;32.35
75447;BME280;64024;55.820;37.574;2023-06-22T08:58:20;98905.56;;;26.02;32.70
75447;BME280;64024;55.820;37.574;2023-06-22T09:00:47;98901.22;;;26.01;32.83
75447;BME280;64024;55.820;37.574;2023-06-22T09:03:13;98908.28;;;26.02;33.17
75447;BME280;64024;55.820;37.574;2023-06-22T09:05:39;98897.38;;;26.02;33.43
75447;BME280;64024;55.820;37.574;2023-06-22T09:08:04;98895.44;;;26.02;33.45
75447;BME280;64024;55.820;37.574;2023-06-22T09:10:30;98891.59;;;26.03;33.44
75447;BME280;64024;55.820;37.574;2023-06-22T09:12:56;98883.44;;;26.03;33.88
75447;BME280;64024;55.820;37.574;2023-06-22T09:15:22;98884.22;;;26.04;33.98
75447;BME280;64024;55.820;37.574;2023-06-22T09:17:48;98883.13;;;26.05;33.91
75447;BME280;64024;55.820;37.574;2023-06-22T09:20:14;98889.03;;;26.07;34.00
75447;BME280;64024;55.820;37.574;2023-06-22T09:22:41;98884.41;;;26.08;33.94
75447;BME280;64024;55.820;37.574;2023-06-22T09:25:07;98889.53;;;26.09;33.91
75447;BME280;64024;55.820;37.574;2023-06-22T09:27:33;98882.97;;;26.10;33.99
75447;BME280;64024;55.820;37.574;2023-06-22T09:29:58;98889.22;;;26.11;33.78
75447;BME280;64024;55.820;37.574;2023-06-22T09:32:25;98884.56;;;26.11;33.84
75447;BME280;64024;55.820;37.574;2023-06-22T09:34:51;98879.91;;;26.12;33.35
75447;BME280;64024;55.820;37.574;2023-06-22T09:37:17;98880.72;;;26.12;33.11
75447;BME280;64024;55.820;37.574;2023-06-22T09:39:42;98879.63;;;26.13;32.46
75447;BME280;64024;55.820;37.574;2023-06-22T09:42:08;98878.50;;;26.14;32.50
75447;BME280;64024;55.820;37.574;2023-06-22T09:44:34;98879.28;;;26.15;32.38
75447;BME280;64024;55.820;37.574;2023-06-22T09:47:00;98874.47;;;26.12;31.97
75447;BME280;64024;55.820;37.574;2023-06-22T09:49:26;98876.56;;;26.06;31.75
75447;BME280;64024;55.820;37.574;2023-06-22T09:51:51;98873.19;;;26.00;31.37
75447;BME280;64024;55.820;37.574;2023-06-22T09:54:17;98863.91;;;25.93;31.29
75447;BME280;64024;55.820;37.574;2023-06-22T09:56:43;98862.44;;;25.87;31.09
75447;BME280;64024;55.820;37.574;2023-06-22T09:59:09;98868.84;;;25.82;30.94
75447;BME280;64024;55.820;37.574;2023-06-22T10:01:35;98873.59;;;25.76;30.88
75447;BME280;64024;55.820;37.574;2023-06-22T10:04:02;98872.94;;;25.71;31.05
75447;BME280;64024;55.820;37.574;2023-06-22T10:06:28;98871.34;;;25.70;31.05
75447;BME280;64024;55.820;37.574;2023-06-22T10:08:53;98862.38;;;25.69;31.24
75447;BME280;64024;55.820;37.574;2023-06-22T10:11:19;98868.31;;;25.71;31.35
75447;BME280;64024;55.820;37.574;2023-06-22T10:13:45;98846.22;;;25.73;31.47
75447;BME280;64024;55.820;37.574;2023-06-22T10:16:10;98855.69;;;25.75;31.39
75447;BME280;64024;55.820;37.574;2023-06-22T10:18:36;98854.56;;;25.76;31.33
75447;BME280;64024;55.820;37.574;2023-06-22T10:21:02;98852.31;;;25.78;31.37
75447;BME280;64024;55.820;37.574;2023-06-22T10:23:27;98842.75;;;25.81;31.28
75447;BME280;64024;55.820;37.574;2023-06-22T10:25:53;98844.81;;;25.84;31.66
75447;BME280;64024;55.820;37.574;2023-06-22T10:28:19;98837.94;;;25.87;31.84
75447;BME280;64024;55.820;37.574;2023-06-22T10:30:44;98839.22;;;25.89;32.20
75447;BME280;64024;55.820;37.574;2023-06-22T10:33:11;98831.22;;;25.93;32.57
75447;BME280;64024;55.820;37.574;2023-06-22T10:35:37;98816.16;;;25.95;33.19
75447;BME280;64024;55.820;37.574;2023-06-22T10:38:04;98831.38;;;25.96;33.25
75447;BME280;64024;55.820;37.574;2023-06-22T10:40:30;98822.88;;;25.98;33.45
75447;BME280;64024;55.820;37.574;2023-06-22T10:42:56;98829.13;;;25.98;32.98
75447;BME280;64024;55.820;37.574;2023-06-22T10:45:22;98818.56;;;25.97;32.34
75447;BME280;64024;55.820;37.574;2023-06-22T10:47:47;98823.06;;;25.93;31.99
75447;BME280;64024;55.820;37.574;2023-06-22T10:50:13;98823.69;;;25.90;31.90
75447;BME280;64024;55.820;37.574;2023-06-22T10:52:39;98814.06;;;25.84;31.64
75447;BME280;64024;55.820;37.574;2023-06-22T10:55:07;98824.31;;;25.78;31.38
75447;BME280;64024;55.820;37.574;2023-06-22T10:57:33;98821.22;;;25.71;30.99
75447;BME280;64024;55.820;37.574;2023-06-22T10:59:59;98812.75;;;25.64;31.21
75447;BME280;64024;55.820;37.574;2023-06-22T11:02:25;98811.78;;;25.60;31.06
75447;BME280;64024;55.820;37.574;2023-06-22T11:04:53;98811.91;;;25.54;31.27
75447;BME280;64024;55.820;37.574;2023-06-22T11:07:19;98810.31;;;25.53;31.25
75447;BME280;64024;55.820;37.574;2023-06-22T11:09:45;98798.31;;;25.54;31.35
75447;BME280;64024;55.820;37.574;2023-06-22T11:12:11;98798.00;;;25.56;31.73
75447;BME280;64024;55.820;37.574;2023-06-22T11:14:38;98800.09;;;25.59;32.25
75447;BME280;64024;55.820;37.574;2023-06-22T11:17:04;98789.34;;;25.63;32.39
75447;BME280;64024;55.820;37.574;2023-06-22T11:19:29;98796.59;;;25.67;32.39
75447;BME280;64024;55.820;37.574;2023-06-22T11:21:55;98789.84;;;25.73;32.51
75447;BME280;64024;55.820;37.574;2023-06-22T11:24:21;98785.06;;;25.79;32.24
75447;BME280;64024;55.820;37.574;2023-06-22T11:26:47;98791.19;;;25.85;32.36
75447;BME280;64024;55.820;37.574;2023-06-22T11:29:13;98785.56;;;25.90;32.27
75447;BME280;64024;55.820;37.574;2023-06-22T11:31:38;98783.47;;;25.95;32.25
75447;BME280;64024;55.820;37.574;2023-06-22T11:34:04;98775.47;;;25.99;32.23
75447;BME280;64024;55.820;37.574;2023-06-22T11:36:30;98776.13;;;26.05;31.80
75447;BME280;64024;55.820;37.574;2023-06-22T11:38:58;98771.63;;;26.09;31.98
75447;BME280;64024;55.820;37.574;2023-06-22T11:41:24;98766.31;;;26.12;32.15
75447;BME280;64024;55.820;37.574;2023-06-22T11:43:50;98769.22;;;26.16;32.02
75447;BME280;64024;55.820;37.574;2023-06-22T11:46:15;98761.19;;;26.19;31.86
75447;BME280;64024;55.820;37.574;2023-06-22T11:48:41;98758.13;;;26.21;32.04
75447;BME280;64024;55.820;37.574;2023-06-22T11:51:08;98753.00;;;26.28;31.48
75447;BME280;64024;55.820;37.574;2023-06-22T11:53:34;98746.94;;;26.22;31.34
75447;BME280;64024;55.820;37.574;2023-06-22T11:56:00;98752.06;;;26.15;31.31
75447;BME280;64024;55.820;37.574;2023-06-22T11:58:26;98745.19;;;26.09;30.97
75447;BME280;64024;55.820;37.574;2023-06-22T12:00:53;98743.75;;;26.03;30.93
75447;BME280;64024;55.820;37.574;2023-06-22T12:03:19;98736.53;;;26.07;30.89
75447;BME280;64024;55.820;37.574;2023-06-22T12:05:47;98738.81;;;25.96;30.88
75447;BME280;64024;55.820;37.574;2023-06-22T12:08:13;98727.09;;;25.87;30.73
75447;BME280;64024;55.820;37.574;2023-06-22T12:10:39;98726.00;;;25.80;30.39
75447;BME280;64024;55.820;37.574;2023-06-22T12:13:04;98728.38;;;25.72;30.86
75447;BME280;64024;55.820;37.574;2023-06-22T12:15:30;98723.72;;;25.64;30.76
75447;BME280;64024;55.820;37.574;2023-06-22T12:17:56;98721.47;;;25.58;30.93
75447;BME280;64024;55.820;37.574;2023-06-22T12:20:21;98724.69;;;25.51;31.00
75447;BME280;64024;55.820;37.574;2023-06-22T12:22:47;98718.75;;;25.49;31.22
75447;BME280;64024;55.820;37.574;2023-06-22T12:25:13;98715.72;;;25.50;31.50
75447;BME280;64024;55.820;37.574;2023-06-22T12:27:39;98709.78;;;25.57;31.49
75447;BME280;64024;55.820;37.574;2023-06-22T12:30:05;98699.25;;;25.64;32.02
75447;BME280;64024;55.820;37.574;2023-06-22T12:32:31;98701.16;;;25.72;32.11
75447;BME280;64024;55.820;37.574;2023-06-22T12:34:56;98694.16;;;25.80;32.45
75447;BME280;64024;55.820;37.574;2023-06-22T12:37:23;98696.06;;;25.88;32.59
75447;BME280;64024;55.820;37.574;2023-06-22T12:39:49;98697.97;;;25.96;32.60
75447;BME280;64024;55.820;37.574;2023-06-22T12:42:15;98692.81;;;26.03;32.72
75447;BME280;64024;55.820;37.574;2023-06-22T12:44:41;98689.59;;;26.10;32.46
75447;BME280;64024;55.820;37.574;2023-06-22T12:47:07;98694.88;;;26.15;32.80
75447;BME280;64024;55.820;37.574;2023-06-22T12:49:36;98685.72;;;26.20;32.94
75447;BME280;64024;55.820;37.574;2023-06-22T12:52:02;98688.16;;;26.21;32.56